sensor_id;sensor_type;location;lat;lon;timestamp;pressure;altitude;pressure_sealevel;temperature;humidity
21742;BME280;11033;47.490;11.116;2024-03-08T00:01:55;92795.63;;;2.09;78.32
21742;BME280;11033;47.490;11.116;2024-03-08T00:04:20;92790.69;;;2.04;78.98
21742;BME280;11033;47.490;11.116;2024-03-08T00:06:46;92790.69;;;2.04;78.82
21742;BME280;11033;47.490;11.116;2024-03-08T00:09:12;92795.50;;;1.99;79.13
21742;BME280;11033;47.490;11.116;2024-03-08T00:11:38;92790.97;;;1.95;79.77
21742;BME280;11033;47.490;11.116;2024-03-08T00:14:03;92781.25;;;1.96;79.13
21742;BME280;11033;47.490;11.116;2024-03-08T00:16:32;92783.13;;;1.95;79.42
21742;BME280;11033;47.490;11.116;2024-03-08T00:18:58;92784.25;;;1.94;79.43
21742;BME280;11033;47.490;11.116;2024-03-08T00:21:23;92782.31;;;1.91;79.88
21742;BME280;11033;47.490;11.116;2024-03-08T00:23:48;92779.31;;;1.89;80.10
21742;BME280;11033;47.490;11.116;2024-03-08T00:26:13;92775.56;;;1.87;79.94
21742;BME280;11033;47.490;11.116;2024-03-08T00:28:39;92772.53;;;1.85;80.59
21742;BME280;11033;47.490;11.116;2024-03-08T00:31:04;92765.75;;;1.80;81.00
21742;BME280;11033;47.490;11.116;2024-03-08T00:33:29;92766.88;;;1.79;81.25
21742;BME280;11033;47.490;11.116;2024-03-08T00:35:54;92764.63;;;1.78;80.77
21742;BME280;11033;47.490;11.116;2024-03-08T00:38:20;92757.88;;;1.77;80.94
21742;BME280;11033;47.490;11.116;2024-03-08T00:40:45;92759.34;;;1.74;81.42
21742;BME280;11033;47.490;11.116;2024-03-08T00:43:10;92757.81;;;1.70;82.06
21742;BME280;11033;47.490;11.116;2024-03-08T00:45:36;92754.44;;;1.69;82.11
21742;BME280;11033;47.490;11.116;2024-03-08T00:48:03;92752.19;;;1.68;82.78
21742;BME280;11033;47.490;11.116;2024-03-08T00:50:28;92745.78;;;1.65;82.93
21742;BME280;11033;47.490;11.116;2024-03-08T00:52:53;92746.91;;;1.64;83.07
21742;BME280;11033;47.490;11.116;2024-03-08T00:55:18;92748.03;;;1.63;83.31
21742;BME280;11033;47.490;11.116;2024-03-08T00:57:44;92746.50;;;1.62;83.20
21742;BME280;11033;47.490;11.116;2024-03-08T01:00:09;92738.28;;;1.60;83.62
21742;BME280;11033;47.490;11.116;2024-03-08T01:02:38;92738.25;;;1.57;83.61
21742;BME280;11033;47.490;11.116;2024-03-08T01:05:03;92734.88;;;1.56;84.17
21742;BME280;11033;47.490;11.116;2024-03-08T01:07:31;92738.25;;;1.57;83.53
21742;BME280;11033;47.490;11.116;2024-03-08T01:09:56;92738.25;;;1.57;83.76
21742;BME280;11033;47.490;11.116;2024-03-08T01:12:22;92740.47;;;1.58;83.82
21742;BME280;11033;47.490;11.116;2024-03-08T01:14:47;92729.22;;;1.54;84.12
21742;BME280;11033;47.490;11.116;2024-03-08T01:17:13;92731.84;;;1.54;84.06
21742;BME280;11033;47.490;11.116;2024-03-08T01:19:38;92723.28;;;1.54;84.06
21742;BME280;11033;47.490;11.116;2024-03-08T01:22:03;92728.50;;;1.54;84.75
21742;BME280;11033;47.490;11.116;2024-03-08T01:24:29;92719.16;;;1.53;84.01
21742;BME280;11033;47.490;11.116;2024-03-08T01:26:54;92715.78;;;1.52;84.68
21742;BME280;11033;47.490;11.116;2024-03-08T01:29:19;92715.03;;;1.52;83.82
21742;BME280;11033;47.490;11.116;2024-03-08T01:31:45;92710.53;;;1.52;83.81
21742;BME280;11033;47.490;11.116;2024-03-08T01:34:10;92709.78;;;1.52;83.63
21742;BME280;11033;47.490;11.116;2024-03-08T01:36:35;92707.09;;;1.44;84.77
21742;BME280;11033;47.490;11.116;2024-03-08T01:39:02;92707.13;;;1.48;84.24
21742;BME280;11033;47.490;11.116;2024-03-08T01:41:32;92699.28;;;1.48;84.09
21742;BME280;11033;47.490;11.116;2024-03-08T01:43:58;92701.88;;;1.44;84.45
21742;BME280;11033;47.490;11.116;2024-03-08T01:46:24;92698.91;;;1.46;84.25
21742;BME280;11033;47.490;11.116;2024-03-08T01:48:49;92695.84;;;1.40;84.74
21742;BME280;11033;47.490;11.116;2024-03-08T01:51:23;92692.53;;;1.43;84.11
21742;BME280;11033;47.490;11.116;2024-03-08T01:53:48;92695.13;;;1.43;83.67
21742;BME280;11033;47.490;11.116;2024-03-08T01:56:14;92679.06;;;1.41;84.10
21742;BME280;11033;47.490;11.116;2024-03-08T01:58:41;92682.03;;;1.40;84.71
21742;BME280;11033;47.490;11.116;2024-03-08T02:01:13;92680.16;;;1.40;84.12
21742;BME280;11033;47.490;11.116;2024-03-08T02:03:41;92678.66;;;1.39;83.74
21742;BME280;11033;47.490;11.116;2024-03-08T02:06:09;92678.66;;;1.39;83.77
21742;BME280;11033;47.490;11.116;2024-03-08T02:08:35;92673.81;;;1.38;84.00
21742;BME280;11033;47.490;11.116;2024-03-08T02:11:01;92673.38;;;1.36;84.23
21742;BME280;11033;47.490;11.116;2024-03-08T02:13:34;92671.53;;;1.36;83.60
21742;BME280;11033;47.490;11.116;2024-03-08T02:16:00;92667.03;;;1.33;83.85
21742;BME280;11033;47.490;11.116;2024-03-08T02:18:27;92669.63;;;1.33;83.73
21742;BME280;11033;47.490;11.116;2024-03-08T02:20:56;92668.09;;;1.29;83.94
21742;BME280;11033;47.490;11.116;2024-03-08T02:23:22;92662.88;;;1.29;83.81
21742;BME280;11033;47.490;11.116;2024-03-08T02:25:48;92658.34;;;1.26;84.33
21742;BME280;11033;47.490;11.116;2024-03-08T02:28:14;92659.88;;;1.27;83.90
21742;BME280;11033;47.490;11.116;2024-03-08T02:30:40;92663.56;;;1.26;83.92
21742;BME280;11033;47.490;11.116;2024-03-08T02:33:06;92658.66;;;1.21;84.43
21742;BME280;11033;47.490;11.116;2024-03-08T02:35:32;92662.06;;;1.25;83.70
21742;BME280;11033;47.490;11.116;2024-03-08T02:37:57;92655.69;;;1.22;83.96
21742;BME280;11033;47.490;11.116;2024-03-08T02:40:23;92651.19;;;1.19;83.89
21742;BME280;11033;47.490;11.116;2024-03-08T02:42:48;92653.44;;;1.21;83.28
21742;BME280;11033;47.490;11.116;2024-03-08T02:45:14;92645.25;;;1.22;83.63
21742;BME280;11033;47.490;11.116;2024-03-08T02:47:39;92649.69;;;1.18;83.23
21742;BME280;11033;47.490;11.116;2024-03-08T02:50:05;92649.63;;;1.15;83.90
21742;BME280;11033;47.490;11.116;2024-03-08T02:52:35;92656.38;;;1.16;84.00
21742;BME280;11033;47.490;11.116;2024-03-08T02:55:01;92654.09;;;1.14;83.96
21742;BME280;11033;47.490;11.116;2024-03-08T02:57:27;92646.69;;;1.16;83.59
21742;BME280;11033;47.490;11.116;2024-03-08T02:59:53;92650.03;;;1.17;83.17
21742;BME280;11033;47.490;11.116;2024-03-08T03:02:18;92650.03;;;1.17;83.04
21742;BME280;11033;47.490;11.116;2024-03-08T03:04:44;92639.53;;;1.13;84.01
21742;BME280;11033;47.490;11.116;2024-03-08T03:07:09;92645.16;;;1.15;82.66
21742;BME280;11033;47.490;11.116;2024-03-08T03:09:34;92637.69;;;1.14;82.92
21742;BME280;11033;47.490;11.116;2024-03-08T03:12:00;92637.69;;;1.14;83.71
21742;BME280;11033;47.490;11.116;2024-03-08T03:14:25;92630.91;;;1.09;83.69
21742;BME280;11033;47.490;11.116;2024-03-08T03:16:54;92630.56;;;1.11;83.01
21742;BME280;11033;47.490;11.116;2024-03-08T03:19:20;92625.69;;;1.09;83.26
21742;BME280;11033;47.490;11.116;2024-03-08T03:21:45;92629.47;;;1.12;83.06
21742;BME280;11033;47.490;11.116;2024-03-08T03:24:11;92636.50;;;1.08;83.20
21742;BME280;11033;47.490;11.116;2024-03-08T03:26:40;92636.47;;;1.04;83.47
21742;BME280;11033;47.490;11.116;2024-03-08T03:29:06;92634.59;;;1.05;83.50
21742;BME280;11033;47.490;11.116;2024-03-08T03:31:32;92641.34;;;1.09;83.07
21742;BME280;11033;47.490;11.116;2024-03-08T03:33:57;92642.06;;;1.06;83.12
21742;BME280;11033;47.490;11.116;2024-03-08T03:36:28;92630.88;;;1.06;83.28
21742;BME280;11033;47.490;11.116;2024-03-08T03:38:54;92635.41;;;1.09;82.37
21742;BME280;11033;47.490;11.116;2024-03-08T03:41:30;92624.19;;;1.08;82.32
21742;BME280;11033;47.490;11.116;2024-03-08T03:43:55;92629.72;;;1.03;82.57
21742;BME280;11033;47.490;11.116;2024-03-08T03:46:21;92622.97;;;1.02;82.50
21742;BME280;11033;47.490;11.116;2024-03-08T03:48:46;92628.53;;;0.97;82.66
21742;BME280;11033;47.490;11.116;2024-03-08T03:51:11;92622.16;;;0.94;82.86
21742;BME280;11033;47.490;11.116;2024-03-08T03:53:37;92621.06;;;0.95;82.74
21742;BME280;11033;47.490;11.116;2024-03-08T03:56:02;92622.84;;;0.91;83.06
21742;BME280;11033;47.490;11.116;2024-03-08T03:58:32;92626.19;;;0.88;82.28
21742;BME280;11033;47.490;11.116;2024-03-08T04:00:57;92622.06;;;0.87;82.76
21742;BME280;11033;47.490;11.116;2024-03-08T04:03:23;92620.88;;;0.81;82.98
21742;BME280;11033;47.490;11.116;2024-03-08T04:05:48;92616.41;;;0.82;83.00
21742;BME280;11033;47.490;11.116;2024-03-08T04:08:13;92618.28;;;0.81;82.95
21742;BME280;11033;47.490;11.116;2024-03-08T04:10:39;92618.97;;;0.78;83.17
21742;BME280;11033;47.490;11.116;2024-03-08T04:13:04;92613.34;;;0.76;82.60
21742;BME280;11033;47.490;11.116;2024-03-08T04:15:29;92616.25;;;0.71;83.33
21742;BME280;11033;47.490;11.116;2024-03-08T04:17:55;92609.88;;;0.69;83.49
21742;BME280;11033;47.490;11.116;2024-03-08T04:20:22;92610.66;;;0.69;83.57
21742;BME280;11033;47.490;11.116;2024-03-08T04:22:47;92601.69;;;0.67;83.05
21742;BME280;11033;47.490;11.116;2024-03-08T04:25:14;92606.13;;;0.66;83.12
21742;BME280;11033;47.490;11.116;2024-03-08T04:27:39;92609.50;;;0.67;82.74
21742;BME280;11033;47.490;11.116;2024-03-08T04:30:06;92604.91;;;0.60;83.34
21742;BME280;11033;47.490;11.116;2024-03-08T04:32:35;92606.81;;;0.60;83.64
21742;BME280;11033;47.490;11.116;2024-03-08T04:35:00;92604.16;;;0.56;83.24
21742;BME280;11033;47.490;11.116;2024-03-08T04:37:26;92597.38;;;0.52;83.09
21742;BME280;11033;47.490;11.116;2024-03-08T04:39:52;92595.84;;;0.51;83.51
21742;BME280;11033;47.490;11.116;2024-03-08T04:42:18;92598.47;;;0.51;82.77
21742;BME280;11033;47.490;11.116;2024-03-08T04:44:43;92595.81;;;0.47;83.24
21742;BME280;11033;47.490;11.116;2024-03-08T04:47:08;92594.31;;;0.46;82.70
21742;BME280;11033;47.490;11.116;2024-03-08T04:49:35;92593.22;;;0.47;82.98
21742;BME280;11033;47.490;11.116;2024-03-08T04:52:04;92594.63;;;0.41;83.45
21742;BME280;11033;47.490;11.116;2024-03-08T04:54:30;92590.56;;;0.43;83.95
21742;BME280;11033;47.490;11.116;2024-03-08T04:56:56;92590.88;;;0.42;83.00
21742;BME280;11033;47.490;11.116;2024-03-08T04:59:22;92594.31;;;0.46;82.47
21742;BME280;11033;47.490;11.116;2024-03-08T05:01:47;92588.28;;;0.42;82.85
21742;BME280;11033;47.490;11.116;2024-03-08T05:04:13;92588.28;;;0.42;83.04
21742;BME280;11033;47.490;11.116;2024-03-08T05:06:38;92586.78;;;0.41;82.43
21742;BME280;11033;47.490;11.116;2024-03-08T05:09:03;92588.94;;;0.35;83.40
21742;BME280;11033;47.490;11.116;2024-03-08T05:11:42;92586.69;;;0.34;83.24
21742;BME280;11033;47.490;11.116;2024-03-08T05:14:08;92587.88;;;0.40;82.34
21742;BME280;11033;47.490;11.116;2024-03-08T05:16:33;92577.81;;;0.38;82.09
21742;BME280;11033;47.490;11.116;2024-03-08T05:18:59;92580.41;;;0.38;82.55
21742;BME280;11033;47.490;11.116;2024-03-08T05:21:24;92580.72;;;0.33;82.93
21742;BME280;11033;47.490;11.116;2024-03-08T05:23:50;92579.59;;;0.34;82.77
21742;BME280;11033;47.490;11.116;2024-03-08T05:26:16;92577.00;;;0.34;82.27
21742;BME280;11033;47.490;11.116;2024-03-08T05:28:41;92584.47;;;0.36;82.26
21742;BME280;11033;47.490;11.116;2024-03-08T05:31:07;92585.56;;;0.35;82.88
21742;BME280;11033;47.490;11.116;2024-03-08T05:33:32;92580.34;;;0.35;82.11
21742;BME280;11033;47.490;11.116;2024-03-08T05:36:00;92582.97;;;0.35;82.58
21742;BME280;11033;47.490;11.116;2024-03-08T05:38:25;92576.59;;;0.32;82.40
21742;BME280;11033;47.490;11.116;2024-03-08T05:40:51;92586.63;;;0.30;82.93
21742;BME280;11033;47.490;11.116;2024-03-08T05:43:16;92587.38;;;0.31;82.90
21742;BME280;11033;47.490;11.116;2024-03-08T05:45:45;92581.41;;;0.30;82.78
21742;BME280;11033;47.490;11.116;2024-03-08T05:48:10;92581.78;;;0.29;82.87
21742;BME280;11033;47.490;11.116;2024-03-08T05:50:37;92580.69;;;0.30;83.17
21742;BME280;11033;47.490;11.116;2024-03-08T05:53:03;92580.69;;;0.30;82.69
21742;BME280;11033;47.490;11.116;2024-03-08T05:55:34;92580.25;;;0.28;82.71
21742;BME280;11033;47.490;11.116;2024-03-08T05:58:01;92585.09;;;0.26;82.71
21742;BME280;11033;47.490;11.116;2024-03-08T06:00:26;92581.34;;;0.27;83.44
21742;BME280;11033;47.490;11.116;2024-03-08T06:02:52;92586.19;;;0.25;82.79
21742;BME280;11033;47.490;11.116;2024-03-08T06:05:17;92580.97;;;0.25;83.84
21742;BME280;11033;47.490;11.116;2024-03-08T06:07:42;92580.59;;;0.26;83.23
21742;BME280;11033;47.490;11.116;2024-03-08T06:10:09;92588.03;;;0.24;83.88
21742;BME280;11033;47.490;11.116;2024-03-08T06:12:36;92582.88;;;0.28;84.13
21742;BME280;11033;47.490;11.116;2024-03-08T06:15:06;92581.41;;;0.30;82.97
21742;BME280;11033;47.490;11.116;2024-03-08T06:17:31;92585.19;;;0.33;83.14
21742;BME280;11033;47.490;11.116;2024-03-08T06:19:56;92580.31;;;0.31;83.96
21742;BME280;11033;47.490;11.116;2024-03-08T06:22:21;92584.47;;;0.36;83.67
21742;BME280;11033;47.490;11.116;2024-03-08T06:24:47;92584.88;;;0.38;83.50
21742;BME280;11033;47.490;11.116;2024-03-08T06:27:12;92584.19;;;0.41;83.04
21742;BME280;11033;47.490;11.116;2024-03-08T06:29:39;92584.56;;;0.43;82.72
21742;BME280;11033;47.490;11.116;2024-03-08T06:32:04;92590.50;;;0.40;83.35
21742;BME280;11033;47.490;11.116;2024-03-08T06:34:32;92593.44;;;0.38;83.49
21742;BME280;11033;47.490;11.116;2024-03-08T06:36:58;92589.03;;;0.42;84.35
21742;BME280;11033;47.490;11.116;2024-03-08T06:39:26;92586.84;;;0.44;83.39
21742;BME280;11033;47.490;11.116;2024-03-08T06:41:51;92589.53;;;0.52;83.43
21742;BME280;11033;47.490;11.116;2024-03-08T06:44:16;92592.91;;;0.52;83.56
21742;BME280;11033;47.490;11.116;2024-03-08T06:46:41;92591.78;;;0.53;83.12
21742;BME280;11033;47.490;11.116;2024-03-08T06:49:07;92588.50;;;0.56;83.21
21742;BME280;11033;47.490;11.116;2024-03-08T06:51:34;92590.03;;;0.61;83.33
21742;BME280;11033;47.490;11.116;2024-03-08T06:53:59;92592.28;;;0.62;83.79
21742;BME280;11033;47.490;11.116;2024-03-08T06:56:25;92588.59;;;0.63;83.33
21742;BME280;11033;47.490;11.116;2024-03-08T06:58:50;92592.84;;;0.75;83.17
21742;BME280;11033;47.490;11.116;2024-03-08T07:01:16;92590.22;;;0.75;83.40
21742;BME280;11033;47.490;11.116;2024-03-08T07:03:42;92586.16;;;0.77;83.08
21742;BME280;11033;47.490;11.116;2024-03-08T07:06:13;92587.31;;;0.83;83.17
21742;BME280;11033;47.490;11.116;2024-03-08T07:08:39;92583.28;;;0.86;83.39
21742;BME280;11033;47.490;11.116;2024-03-08T07:11:04;92581.47;;;0.90;83.16
21742;BME280;11033;47.490;11.116;2024-03-08T07:13:30;92579.22;;;0.92;82.95
21742;BME280;11033;47.490;11.116;2024-03-08T07:15:55;92578.56;;;0.98;83.08
21742;BME280;11033;47.490;11.116;2024-03-08T07:18:21;92565.91;;;1.01;82.76
21742;BME280;11033;47.490;11.116;2024-03-08T07:20:47;92567.81;;;1.04;83.06
21742;BME280;11033;47.490;11.116;2024-03-08T07:23:12;92566.03;;;1.11;82.97
21742;BME280;11033;47.490;11.116;2024-03-08T07:25:57;92567.59;;;1.19;83.03
21742;BME280;11033;47.490;11.116;2024-03-08T07:28:23;92562.03;;;1.24;83.17
21742;BME280;11033;47.490;11.116;2024-03-08T07:30:48;92568.50;;;1.34;82.86
21742;BME280;11033;47.490;11.116;2024-03-08T07:33:14;92565.56;;;1.42;82.46
21742;BME280;11033;47.490;11.116;2024-03-08T07:35:40;92569.75;;;1.51;82.15
21742;BME280;11033;47.490;11.116;2024-03-08T07:38:06;92554.84;;;1.51;82.01
21742;BME280;11033;47.490;11.116;2024-03-08T07:40:35;92559.44;;;1.61;81.76
21742;BME280;11033;47.490;11.116;2024-03-08T07:43:00;92559.88;;;1.70;82.16
21742;BME280;11033;47.490;11.116;2024-03-08T07:45:26;92559.16;;;1.77;81.73
21742;BME280;11033;47.490;11.116;2024-03-08T07:47:51;92552.06;;;1.77;81.59
21742;BME280;11033;47.490;11.116;2024-03-08T07:50:18;92556.22;;;1.82;82.04
21742;BME280;11033;47.490;11.116;2024-03-08T07:52:44;92556.34;;;1.96;80.94
21742;BME280;11033;47.490;11.116;2024-03-08T07:55:09;92565.34;;;1.99;80.79
21742;BME280;11033;47.490;11.116;2024-03-08T07:57:35;92556.81;;;2.09;80.01
21742;BME280;11033;47.490;11.116;2024-03-08T08:00:04;92551.66;;;2.19;80.07
21742;BME280;11033;47.490;11.116;2024-03-08T08:02:32;92553.88;;;2.17;80.33
21742;BME280;11033;47.490;11.116;2024-03-08T08:04:58;92545.31;;;2.24;80.18
21742;BME280;11033;47.490;11.116;2024-03-08T08:07:24;92537.13;;;2.29;79.86
21742;BME280;11033;47.490;11.116;2024-03-08T08:09:49;92537.88;;;2.33;80.29
21742;BME280;11033;47.490;11.116;2024-03-08T08:12:14;92525.97;;;2.39;80.30
21742;BME280;11033;47.490;11.116;2024-03-08T08:14:40;92522.34;;;2.58;79.76
21742;BME280;11033;47.490;11.116;2024-03-08T08:17:06;92522.34;;;2.61;79.76
21742;BME280;11033;47.490;11.116;2024-03-08T08:19:34;92516.78;;;2.73;78.94
21742;BME280;11033;47.490;11.116;2024-03-08T08:22:03;92514.94;;;2.77;79.53
21742;BME280;11033;47.490;11.116;2024-03-08T08:24:29;92512.72;;;2.83;79.07
21742;BME280;11033;47.490;11.116;2024-03-08T08:26:54;92509.03;;;3.05;78.26
21742;BME280;11033;47.490;11.116;2024-03-08T08:29:19;92509.78;;;3.06;78.50
21742;BME280;11033;47.490;11.116;2024-03-08T08:31:46;92501.94;;;3.20;77.44
21742;BME280;11033;47.490;11.116;2024-03-08T08:34:11;92503.88;;;3.51;76.38
21742;BME280;11033;47.490;11.116;2024-03-08T08:36:37;92499.41;;;3.48;76.22
21742;BME280;11033;47.490;11.116;2024-03-08T08:39:04;92494.91;;;3.56;76.86
21742;BME280;11033;47.490;11.116;2024-03-08T08:41:30;92484.41;;;3.56;77.25
21742;BME280;11033;47.490;11.116;2024-03-08T08:43:57;92491.53;;;3.83;76.16
21742;BME280;11033;47.490;11.116;2024-03-08T08:46:22;92490.03;;;3.89;76.22
21742;BME280;11033;47.490;11.116;2024-03-08T08:48:47;92488.13;;;3.90;75.46
21742;BME280;11033;47.490;11.116;2024-03-08T08:51:12;92481.75;;;4.16;74.36
21742;BME280;11033;47.490;11.116;2024-03-08T08:53:39;92482.84;;;4.25;74.93
21742;BME280;11033;47.490;11.116;2024-03-08T08:56:06;92486.22;;;4.26;74.43
21742;BME280;11033;47.490;11.116;2024-03-08T08:58:33;92485.09;;;4.37;75.11
21742;BME280;11033;47.490;11.116;2024-03-08T09:00:58;92482.75;;;4.54;73.59
21742;BME280;11033;47.490;11.116;2024-03-08T09:03:24;92473.69;;;4.79;71.42
21742;BME280;11033;47.490;11.116;2024-03-08T09:05:50;92477.81;;;4.73;73.37
21742;BME280;11033;47.490;11.116;2024-03-08T09:08:15;92471.31;;;5.03;72.64
21742;BME280;11033;47.490;11.116;2024-03-08T09:10:40;92465.28;;;5.09;72.13
21742;BME280;11033;47.490;11.116;2024-03-08T09:13:06;92462.91;;;5.29;72.91
21742;BME280;11033;47.490;11.116;2024-03-08T09:15:31;92460.19;;;5.43;69.99
21742;BME280;11033;47.490;11.116;2024-03-08T09:17:56;92451.78;;;5.62;70.54
21742;BME280;11033;47.490;11.116;2024-03-08T09:20:22;92454.47;;;6.03;67.72
21742;BME280;11033;47.490;11.116;2024-03-08T09:22:47;92452.63;;;5.97;68.83
21742;BME280;11033;47.490;11.116;2024-03-08T09:25:12;92448.81;;;6.05;68.17
21742;BME280;11033;47.490;11.116;2024-03-08T09:27:38;92446.34;;;6.28;66.75
21742;BME280;11033;47.490;11.116;2024-03-08T09:30:05;92450.63;;;6.49;66.67
21742;BME280;11033;47.490;11.116;2024-03-08T09:32:32;92446.38;;;6.58;68.51
21742;BME280;11033;47.490;11.116;2024-03-08T09:34:57;92445.13;;;6.70;67.27
21742;BME280;11033;47.490;11.116;2024-03-08T09:37:22;92446.03;;;6.87;66.32
21742;BME280;11033;47.490;11.116;2024-03-08T09:39:48;92441.56;;;7.14;65.36
21742;BME280;11033;47.490;11.116;2024-03-08T09:42:15;92444.69;;;7.32;61.11
21742;BME280;11033;47.490;11.116;2024-03-08T09:44:47;92435.84;;;7.46;62.46
21742;BME280;11033;47.490;11.116;2024-03-08T09:47:13;92434.72;;;7.70;62.33
21742;BME280;11033;47.490;11.116;2024-03-08T09:49:39;92438.22;;;7.87;60.86
21742;BME280;11033;47.490;11.116;2024-03-08T09:52:06;92433.09;;;7.99;60.78
21742;BME280;11033;47.490;11.116;2024-03-08T09:54:32;92426.38;;;8.18;56.88
21742;BME280;11033;47.490;11.116;2024-03-08T09:56:58;92418.88;;;8.36;54.14
21742;BME280;11033;47.490;11.116;2024-03-08T09:59:23;92427.38;;;8.47;52.64
21742;BME280;11033;47.490;11.116;2024-03-08T10:01:48;92423.31;;;8.62;52.47
21742;BME280;11033;47.490;11.116;2024-03-08T10:04:14;92420.19;;;8.67;55.60
21742;BME280;11033;47.490;11.116;2024-03-08T10:06:40;92416.41;;;8.88;55.42
21742;BME280;11033;47.490;11.116;2024-03-08T10:09:05;92416.28;;;9.11;52.09
21742;BME280;11033;47.490;11.116;2024-03-08T10:11:33;92417.38;;;9.30;55.09
21742;BME280;11033;47.490;11.116;2024-03-08T10:14:00;92420.53;;;9.41;52.79
21742;BME280;11033;47.490;11.116;2024-03-08T10:16:27;92412.88;;;9.63;52.01
21742;BME280;11033;47.490;11.116;2024-03-08T10:18:54;92408.47;;;9.89;54.99
21742;BME280;11033;47.490;11.116;2024-03-08T10:21:21;92406.88;;;10.07;53.12
21742;BME280;11033;47.490;11.116;2024-03-08T10:23:46;92409.28;;;10.18;51.73
21742;BME280;11033;47.490;11.116;2024-03-08T10:26:16;92401.44;;;10.43;47.71
21742;BME280;11033;47.490;11.116;2024-03-08T10:28:45;92407.78;;;10.33;48.76
21742;BME280;11033;47.490;11.116;2024-03-08T10:31:11;92401.69;;;10.49;45.77
21742;BME280;11033;47.490;11.116;2024-03-08T10:33:37;92403.41;;;10.55;46.45
21742;BME280;11033;47.490;11.116;2024-03-08T10:36:07;92401.59;;;11.06;49.87
21742;BME280;11033;47.490;11.116;2024-03-08T10:38:35;92397.56;;;11.40;48.66
21742;BME280;11033;47.490;11.116;2024-03-08T10:41:03;92391.72;;;11.32;45.44
21742;BME280;11033;47.490;11.116;2024-03-08T10:43:35;92388.88;;;11.77;49.60
21742;BME280;11033;47.490;11.116;2024-03-08T10:46:24;92390.06;;;11.76;46.17
21742;BME280;11033;47.490;11.116;2024-03-08T10:48:55;92384.84;;;12.20;44.94
21742;BME280;11033;47.490;11.116;2024-03-08T10:51:24;92386.06;;;12.40;44.51
21742;BME280;11033;47.490;11.116;2024-03-08T10:53:51;92378.75;;;12.75;43.38
21742;BME280;11033;47.490;11.116;2024-03-08T10:56:17;92383.47;;;12.93;44.14
21742;BME280;11033;47.490;11.116;2024-03-08T10:58:42;92382.56;;;13.18;43.46
21742;BME280;11033;47.490;11.116;2024-03-08T11:01:09;92373.94;;;13.44;44.97
21742;BME280;11033;47.490;11.116;2024-03-08T11:03:47;92378.19;;;13.33;38.24
21742;BME280;11033;47.490;11.116;2024-03-08T11:06:19;92378.94;;;13.73;41.60
21742;BME280;11033;47.490;11.116;2024-03-08T11:08:48;92363.16;;;13.48;38.68
21742;BME280;11033;47.490;11.116;2024-03-08T11:11:32;92372.84;;;14.49;41.94
21742;BME280;11033;47.490;11.116;2024-03-08T11:13:58;92373.03;;;15.15;40.54
21742;BME280;11033;47.490;11.116;2024-03-08T11:21:36;92351.28;;;17.12;43.04
21742;BME280;11033;47.490;11.116;2024-03-08T11:24:14;92351.88;;;17.80;42.67
21742;BME280;11033;47.490;11.116;2024-03-08T11:26:41;92349.00;;;18.04;39.18
21742;BME280;11033;47.490;11.116;2024-03-08T11:32:26;92346.97;;;19.05;36.56
21742;BME280;11033;47.490;11.116;2024-03-08T11:34:53;92342.88;;;19.41;36.47
21742;BME280;11033;47.490;11.116;2024-03-08T11:37:19;92347.03;;;19.11;36.91
21742;BME280;11033;47.490;11.116;2024-03-08T11:39:52;92342.78;;;19.56;35.68
21742;BME280;11033;47.490;11.116;2024-03-08T11:42:19;92331.66;;;19.79;34.20
21742;BME280;11033;47.490;11.116;2024-03-08T11:44:45;92328.28;;;20.33;35.12
21742;BME280;11033;47.490;11.116;2024-03-08T11:47:11;92328.19;;;20.75;34.47
21742;BME280;11033;47.490;11.116;2024-03-08T11:49:37;92325.53;;;20.97;33.55
21742;BME280;11033;47.490;11.116;2024-03-08T11:52:03;92320.44;;;21.16;32.07
21742;BME280;11033;47.490;11.116;2024-03-08T11:54:29;92317.41;;;22.14;33.94
21742;BME280;11033;47.490;11.116;2024-03-08T11:56:56;92313.81;;;21.17;32.49
21742;BME280;11033;47.490;11.116;2024-03-08T11:59:26;92309.50;;;22.33;32.93
21742;BME280;11033;47.490;11.116;2024-03-08T12:02:03;92313.16;;;22.41;33.35
21742;BME280;11033;47.490;11.116;2024-03-08T12:04:29;92301.03;;;21.67;30.92
21742;BME280;11033;47.490;11.116;2024-03-08T12:06:56;92300.44;;;22.25;30.00
21742;BME280;11033;47.490;11.116;2024-03-08T12:09:24;92298.19;;;22.29;31.56
21742;BME280;11033;47.490;11.116;2024-03-08T12:11:49;92297.84;;;23.66;33.72
21742;BME280;11033;47.490;11.116;2024-03-08T12:14:16;92287.47;;;23.40;29.99
21742;BME280;11033;47.490;11.116;2024-03-08T12:16:41;92292.84;;;23.16;29.14
21742;BME280;11033;47.490;11.116;2024-03-08T12:19:07;92279.63;;;23.42;30.36
21742;BME280;11033;47.490;11.116;2024-03-08T12:21:35;92282.75;;;23.76;28.86
21742;BME280;11033;47.490;11.116;2024-03-08T12:24:10;92281.66;;;24.33;30.94
21742;BME280;11033;47.490;11.116;2024-03-08T12:26:37;92273.63;;;23.49;27.32
21742;BME280;11033;47.490;11.116;2024-03-08T12:31:45;92267.03;;;24.61;30.79
21742;BME280;11033;47.490;11.116;2024-03-08T12:34:11;92272.69;;;24.81;29.20
21742;BME280;11033;47.490;11.116;2024-03-08T12:36:44;92264.53;;;22.76;26.81
21742;BME280;11033;47.490;11.116;2024-03-08T12:39:10;92256.66;;;25.15;28.55
21742;BME280;11033;47.490;11.116;2024-03-08T12:41:39;92250.97;;;24.63;27.19
21742;BME280;11033;47.490;11.116;2024-03-08T12:44:05;92255.75;;;25.26;27.21
21742;BME280;11033;47.490;11.116;2024-03-08T12:46:32;92246.06;;;26.15;26.95
21742;BME280;11033;47.490;11.116;2024-03-08T12:48:58;92239.38;;;24.43;27.26
21742;BME280;11033;47.490;11.116;2024-03-08T12:51:24;92236.56;;;25.50;27.19
21742;BME280;11033;47.490;11.116;2024-03-08T12:53:50;92230.25;;;24.97;27.55
21742;BME280;11033;47.490;11.116;2024-03-08T12:56:29;92229.25;;;25.00;27.41
21742;BME280;11033;47.490;11.116;2024-03-08T12:58:55;92225.47;;;26.19;26.14
21742;BME280;11033;47.490;11.116;2024-03-08T13:01:21;92220.44;;;25.26;24.94
21742;BME280;11033;47.490;11.116;2024-03-08T13:03:47;92222.19;;;25.94;24.99
21742;BME280;11033;47.490;11.116;2024-03-08T13:06:14;92211.84;;;26.32;27.00